Roswell, GA

10:32 AM EST on January 27, 2015 (GMT -0500)
Twelvestones Subdivision | Change Station
CLOSE
Current Station
Personal Weather Station
Location: Roswell, GA
Elevation: 1040 ft
Nearby Weather Stations

Elev 1040 ft 34.00 °N, 84.29 °W | Updated 2 minutes ago

Partly Cloudy
Partly Cloudy
41.5 °F
Feels Like 40 °F
N
3.1
Wind Variable Wind from West
Gusts 9.8 mph

Today
High -- | Low -- °F
--% Chance of Precip.
Yesterday
High -- | Low -- °F
Precip. -- in
7:37 AM 6:02 PM
First Quarter, 55% visible
Pressure 29.96 in
Visibility 8.0 miles
Clouds Clear
Windchill 40 °F
Dew Point 31 °F
Humidity 66%
Rainfall 0.00 in
Snow Depth Not available.
UV 2 out of 12
Pollen 3.00 out of 12
Air Quality Not available.
Flu Activity Not available.
METAR KPDK 271453Z 31008KT 8SM CLR 04/M01 A2992 RMK AO2 SLP144 T00441011 51014

More Conditions Fewer Conditions

Pressure 29.96 in
Visibility 8.0 miles
Clouds Clear
Windchill 40 °F
Dew Point 31 °F
Humidity 66%
Rainfall 0.00 in
Snow Depth Not available.
UV 2 out of 12
Pollen 3.00 out of 12
Air Quality Not available.
Flu Activity Not available.
METAR KPDK 271453Z 31008KT 8SM CLR 04/M01 A2992 RMK AO2 SLP144 T00441011 51014

More Conditions Fewer Conditions

10-Day Weather Forecast

Almanac

Astronomy

Jan. 27, 2015 Rise Set
Actual Time
Civil Twilight
Nautical Twilight
Astronomical Twilight
Moon
Length of Visible Light
Length of Day
Tomorrow will be .
, % of the Moon is Illuminated

Today's Extremes

State Highs State Lows

Community

WunderPhotos

Upload Photos

1,790,689 photos uploaded!

WunderBlogs® & News

Nearby

Air Quality

  Air Quality AQ Index Pollutant
Not available.

Snow Depth

Station Depth Elevation

Earthquake Activity

City Distance Mag. Time & Date
Minimum magnitude displayed is 2.5.

Coastal Water Temperatures

Place Temperature

Nearby Weather Stations